Weather at Putrajaya International Convention Centre Heliport

Public forecast

Using degrees Celsius for public forecast. Weather courtesy of forecast.io.

Closest aviation weather report (METAR) to Putrajaya International Convention Centre Heliport

Closest report is Kuala Lumpur International Airport, 9.1 nm (16.8 km) SSE.

2024/05/25 23:00 (retrieved 31 minutes ago)

WMKK 252300Z VRB02KT 9000 FEW010 27/25 Q1009 NOSIG

Closest aviation forecast (TAF) to Putrajaya International Convention Centre Heliport

Closest forecast is Kuala Lumpur International Airport, 9.1 nm (16.8 km) SSE.

2024/05/25 18:13 (retrieved 5 hours ago)

TAF WMKK 251700Z 2518/2700 VRB02KT 9000 FEW010